sensor_id;sensor_type;location;lat;lon;timestamp;P1;durP1;ratioP1;P2;durP2;ratioP2
21711;SDS011;11017;53.552;9.910;2022-09-12T00:00:12;1.65;;;1.05;;
21711;SDS011;11017;53.552;9.910;2022-09-12T00:02:40;0.82;;;0.57;;
21711;SDS011;11017;53.552;9.910;2022-09-12T00:05:07;0.60;;;0.55;;
21711;SDS011;11017;53.552;9.910;2022-09-12T00:07:36;0.20;;;0.20;;
21711;SDS011;11017;53.552;9.910;2022-09-12T00:10:03;1.02;;;0.35;;
21711;SDS011;11017;53.552;9.910;2022-09-12T00:12:31;0.60;;;0.60;;
21711;SDS011;11017;53.552;9.910;2022-09-12T00:14:58;1.15;;;0.73;;
21711;SDS011;11017;53.552;9.910;2022-09-12T00:17:25;1.27;;;0.68;;
21711;SDS011;11017;53.552;9.910;2022-09-12T00:19:52;0.93;;;0.85;;
21711;SDS011;11017;53.552;9.910;2022-09-12T00:22:20;0.25;;;0.25;;
21711;SDS011;11017;53.552;9.910;2022-09-12T00:24:48;0.55;;;0.55;;
21711;SDS011;11017;53.552;9.910;2022-09-12T00:27:15;0.57;;;0.43;;
21711;SDS011;11017;53.552;9.910;2022-09-12T00:29:42;0.20;;;0.20;;
21711;SDS011;11017;53.552;9.910;2022-09-12T00:32:09;2.78;;;0.77;;
21711;SDS011;11017;53.552;9.910;2022-09-12T00:34:36;0.60;;;0.60;;
21711;SDS011;11017;53.552;9.910;2022-09-12T00:37:04;2.20;;;0.98;;
21711;SDS011;11017;53.552;9.910;2022-09-12T00:39:31;0.50;;;0.47;;
21711;SDS011;11017;53.552;9.910;2022-09-12T00:41:59;5.78;;;1.30;;
21711;SDS011;11017;53.552;9.910;2022-09-12T00:44:43;3.75;;;1.00;;
21711;SDS011;11017;53.552;9.910;2022-09-12T00:47:12;0.40;;;0.40;;
21711;SDS011;11017;53.552;9.910;2022-09-12T00:49:42;1.55;;;1.38;;
21711;SDS011;11017;53.552;9.910;2022-09-12T00:52:10;0.22;;;0.22;;
21711;SDS011;11017;53.552;9.910;2022-09-12T00:54:39;0.68;;;0.50;;
21711;SDS011;11017;53.552;9.910;2022-09-12T00:57:09;0.57;;;0.57;;
21711;SDS011;11017;53.552;9.910;2022-09-12T00:59:40;0.38;;;0.38;;
21711;SDS011;11017;53.552;9.910;2022-09-12T01:02:07;0.55;;;0.52;;
21711;SDS011;11017;53.552;9.910;2022-09-12T01:04:35;0.95;;;0.75;;
21711;SDS011;11017;53.552;9.910;2022-09-12T01:07:02;0.90;;;0.40;;
21711;SDS011;11017;53.552;9.910;2022-09-12T01:09:30;0.65;;;0.63;;
21711;SDS011;11017;53.552;9.910;2022-09-12T01:11:57;0.85;;;0.70;;
21711;SDS011;11017;53.552;9.910;2022-09-12T01:14:29;0.55;;;0.55;;
21711;SDS011;11017;53.552;9.910;2022-09-12T01:16:56;0.43;;;0.30;;
21711;SDS011;11017;53.552;9.910;2022-09-12T01:19:39;1.13;;;1.02;;
21711;SDS011;11017;53.552;9.910;2022-09-12T01:22:19;0.63;;;0.50;;
21711;SDS011;11017;53.552;9.910;2022-09-12T01:24:52;0.70;;;0.57;;
21711;SDS011;11017;53.552;9.910;2022-09-12T01:30:16;0.60;;;0.30;;
21711;SDS011;11017;53.552;9.910;2022-09-12T01:32:47;0.57;;;0.50;;
21711;SDS011;11017;53.552;9.910;2022-09-12T01:35:18;1.70;;;0.73;;
21711;SDS011;11017;53.552;9.910;2022-09-12T01:37:50;0.40;;;0.40;;
21711;SDS011;11017;53.552;9.910;2022-09-12T01:40:19;1.92;;;0.82;;
21711;SDS011;11017;53.552;9.910;2022-09-12T01:42:50;1.08;;;0.43;;
21711;SDS011;11017;53.552;9.910;2022-09-12T01:45:23;0.35;;;0.20;;
21711;SDS011;11017;53.552;9.910;2022-09-12T01:47:52;2.05;;;0.70;;
21711;SDS011;11017;53.552;9.910;2022-09-12T01:50:23;1.10;;;0.85;;
21711;SDS011;11017;53.552;9.910;2022-09-12T01:52:52;1.30;;;0.70;;
21711;SDS011;11017;53.552;9.910;2022-09-12T01:55:21;0.20;;;0.20;;
21711;SDS011;11017;53.552;9.910;2022-09-12T01:57:51;1.00;;;0.57;;
21711;SDS011;11017;53.552;9.910;2022-09-12T02:00:19;1.10;;;0.75;;
21711;SDS011;11017;53.552;9.910;2022-09-12T02:02:48;1.48;;;0.57;;
21711;SDS011;11017;53.552;9.910;2022-09-12T02:05:18;1.60;;;1.00;;
21711;SDS011;11017;53.552;9.910;2022-09-12T02:07:46;0.45;;;0.45;;
21711;SDS011;11017;53.552;9.910;2022-09-12T02:10:16;0.70;;;0.68;;
21711;SDS011;11017;53.552;9.910;2022-09-12T02:12:46;0.30;;;0.30;;
21711;SDS011;11017;53.552;9.910;2022-09-12T02:15:15;2.28;;;1.05;;
21711;SDS011;11017;53.552;9.910;2022-09-12T02:17:44;0.40;;;0.40;;
21711;SDS011;11017;53.552;9.910;2022-09-12T02:20:15;0.17;;;0.17;;
21711;SDS011;11017;53.552;9.910;2022-09-12T02:22:43;0.93;;;0.82;;
21711;SDS011;11017;53.552;9.910;2022-09-12T02:25:11;0.30;;;0.30;;
21711;SDS011;11017;53.552;9.910;2022-09-12T02:27:40;0.70;;;0.60;;
21711;SDS011;11017;53.552;9.910;2022-09-12T02:30:08;1.27;;;1.15;;
21711;SDS011;11017;53.552;9.910;2022-09-12T02:32:40;1.30;;;0.57;;
21711;SDS011;11017;53.552;9.910;2022-09-12T02:35:10;1.88;;;0.98;;
21711;SDS011;11017;53.552;9.910;2022-09-12T02:37:44;0.75;;;0.75;;
21711;SDS011;11017;53.552;9.910;2022-09-12T02:40:15;1.60;;;0.73;;
21711;SDS011;11017;53.552;9.910;2022-09-12T02:42:42;0.82;;;0.63;;
21711;SDS011;11017;53.552;9.910;2022-09-12T02:45:09;1.27;;;1.20;;
21711;SDS011;11017;53.552;9.910;2022-09-12T02:47:37;1.05;;;0.95;;
21711;SDS011;11017;53.552;9.910;2022-09-12T02:50:06;1.73;;;1.20;;
21711;SDS011;11017;53.552;9.910;2022-09-12T02:52:33;1.17;;;1.08;;
21711;SDS011;11017;53.552;9.910;2022-09-12T02:55:02;0.63;;;0.63;;
21711;SDS011;11017;53.552;9.910;2022-09-12T02:57:30;0.40;;;0.40;;
21711;SDS011;11017;53.552;9.910;2022-09-12T02:59:57;1.00;;;0.90;;
21711;SDS011;11017;53.552;9.910;2022-09-12T03:02:31;2.78;;;1.23;;
21711;SDS011;11017;53.552;9.910;2022-09-12T03:05:02;1.00;;;0.60;;
21711;SDS011;11017;53.552;9.910;2022-09-12T03:07:38;1.08;;;0.82;;
21711;SDS011;11017;53.552;9.910;2022-09-12T03:10:09;1.55;;;0.52;;
21711;SDS011;11017;53.552;9.910;2022-09-12T03:12:44;1.50;;;1.23;;
21711;SDS011;11017;53.552;9.910;2022-09-12T03:15:17;0.85;;;0.30;;
21711;SDS011;11017;53.552;9.910;2022-09-12T03:17:53;0.77;;;0.77;;
21711;SDS011;11017;53.552;9.910;2022-09-12T03:20:25;1.83;;;1.48;;
21711;SDS011;11017;53.552;9.910;2022-09-12T03:22:57;3.40;;;1.48;;
21711;SDS011;11017;53.552;9.910;2022-09-12T03:25:27;1.15;;;0.60;;
21711;SDS011;11017;53.552;9.910;2022-09-12T03:27:57;1.27;;;1.17;;
21711;SDS011;11017;53.552;9.910;2022-09-12T03:30:25;0.43;;;0.43;;
21711;SDS011;11017;53.552;9.910;2022-09-12T03:32:53;1.77;;;1.58;;
21711;SDS011;11017;53.552;9.910;2022-09-12T03:35:21;0.98;;;0.88;;
21711;SDS011;11017;53.552;9.910;2022-09-12T03:37:49;1.92;;;0.70;;
21711;SDS011;11017;53.552;9.910;2022-09-12T03:40:16;0.90;;;0.75;;
21711;SDS011;11017;53.552;9.910;2022-09-12T03:42:45;1.08;;;0.98;;
21711;SDS011;11017;53.552;9.910;2022-09-12T03:45:12;1.05;;;0.73;;
21711;SDS011;11017;53.552;9.910;2022-09-12T03:47:40;1.48;;;0.80;;
21711;SDS011;11017;53.552;9.910;2022-09-12T03:50:07;0.95;;;0.65;;
21711;SDS011;11017;53.552;9.910;2022-09-12T03:52:35;0.77;;;0.77;;
21711;SDS011;11017;53.552;9.910;2022-09-12T03:55:02;0.77;;;0.55;;
21711;SDS011;11017;53.552;9.910;2022-09-12T03:57:29;0.50;;;0.47;;
21711;SDS011;11017;53.552;9.910;2022-09-12T03:59:57;1.20;;;0.90;;
21711;SDS011;11017;53.552;9.910;2022-09-12T04:02:26;3.00;;;0.95;;
21711;SDS011;11017;53.552;9.910;2022-09-12T04:04:53;0.60;;;0.60;;
21711;SDS011;11017;53.552;9.910;2022-09-12T04:07:20;2.50;;;1.15;;
21711;SDS011;11017;53.552;9.910;2022-09-12T04:09:47;0.63;;;0.63;;
21711;SDS011;11017;53.552;9.910;2022-09-12T04:12:14;1.42;;;0.90;;
21711;SDS011;11017;53.552;9.910;2022-09-12T04:14:41;1.33;;;1.02;;
21711;SDS011;11017;53.552;9.910;2022-09-12T04:17:10;1.23;;;1.10;;
21711;SDS011;11017;53.552;9.910;2022-09-12T04:19:38;2.45;;;1.52;;
21711;SDS011;11017;53.552;9.910;2022-09-12T04:22:05;1.75;;;1.40;;
21711;SDS011;11017;53.552;9.910;2022-09-12T04:24:32;0.80;;;0.80;;
21711;SDS011;11017;53.552;9.910;2022-09-12T04:26:59;2.83;;;2.13;;
21711;SDS011;11017;53.552;9.910;2022-09-12T04:29:26;1.27;;;1.17;;
21711;SDS011;11017;53.552;9.910;2022-09-12T04:31:53;19.15;;;2.10;;
21711;SDS011;11017;53.552;9.910;2022-09-12T04:34:22;2.17;;;1.23;;
21711;SDS011;11017;53.552;9.910;2022-09-12T04:36:49;1.35;;;1.20;;
21711;SDS011;11017;53.552;9.910;2022-09-12T04:39:16;1.27;;;1.10;;
21711;SDS011;11017;53.552;9.910;2022-09-12T04:41:43;2.42;;;1.25;;
21711;SDS011;11017;53.552;9.910;2022-09-12T04:44:11;1.30;;;1.20;;
21711;SDS011;11017;53.552;9.910;2022-09-12T04:46:41;4.20;;;1.45;;
21711;SDS011;11017;53.552;9.910;2022-09-12T04:49:09;1.08;;;1.00;;
21711;SDS011;11017;53.552;9.910;2022-09-12T04:51:37;1.45;;;1.23;;
21711;SDS011;11017;53.552;9.910;2022-09-12T04:54:06;2.40;;;1.67;;
21711;SDS011;11017;53.552;9.910;2022-09-12T04:56:35;1.38;;;1.08;;
21711;SDS011;11017;53.552;9.910;2022-09-12T04:59:03;4.85;;;1.48;;
21711;SDS011;11017;53.552;9.910;2022-09-12T05:01:30;3.50;;;2.05;;
21711;SDS011;11017;53.552;9.910;2022-09-12T05:03:58;5.07;;;2.60;;
21711;SDS011;11017;53.552;9.910;2022-09-12T05:06:26;1.95;;;1.38;;
21711;SDS011;11017;53.552;9.910;2022-09-12T05:08:55;2.45;;;1.52;;
21711;SDS011;11017;53.552;9.910;2022-09-12T05:11:23;2.15;;;1.02;;
21711;SDS011;11017;53.552;9.910;2022-09-12T05:13:50;2.83;;;2.55;;
21711;SDS011;11017;53.552;9.910;2022-09-12T05:16:18;2.97;;;2.03;;
21711;SDS011;11017;53.552;9.910;2022-09-12T05:18:45;2.35;;;0.77;;
21711;SDS011;11017;53.552;9.910;2022-09-12T05:21:14;3.35;;;2.10;;
21711;SDS011;11017;53.552;9.910;2022-09-12T05:23:42;4.68;;;2.97;;
21711;SDS011;11017;53.552;9.910;2022-09-12T05:26:11;2.83;;;2.03;;
21711;SDS011;11017;53.552;9.910;2022-09-12T05:28:39;1.67;;;1.58;;
21711;SDS011;11017;53.552;9.910;2022-09-12T05:31:07;2.30;;;2.10;;
21711;SDS011;11017;53.552;9.910;2022-09-12T05:33:35;5.82;;;2.97;;
21711;SDS011;11017;53.552;9.910;2022-09-12T05:36:03;6.10;;;2.00;;
21711;SDS011;11017;53.552;9.910;2022-09-12T05:38:30;2.67;;;2.00;;
21711;SDS011;11017;53.552;9.910;2022-09-12T05:41:01;7.60;;;1.92;;
21711;SDS011;11017;53.552;9.910;2022-09-12T05:43:30;0.85;;;0.85;;
21711;SDS011;11017;53.552;9.910;2022-09-12T05:45:59;3.38;;;1.48;;
21711;SDS011;11017;53.552;9.910;2022-09-12T05:48:26;4.35;;;1.50;;
21711;SDS011;11017;53.552;9.910;2022-09-12T05:50:57;3.42;;;2.25;;
21711;SDS011;11017;53.552;9.910;2022-09-12T05:53:25;1.88;;;1.20;;
21711;SDS011;11017;53.552;9.910;2022-09-12T05:56:00;3.20;;;1.85;;
21711;SDS011;11017;53.552;9.910;2022-09-12T05:58:27;2.85;;;2.28;;
21711;SDS011;11017;53.552;9.910;2022-09-12T06:00:59;1.40;;;1.05;;
21711;SDS011;11017;53.552;9.910;2022-09-12T06:03:27;2.25;;;1.90;;
21711;SDS011;11017;53.552;9.910;2022-09-12T06:05:54;1.08;;;0.98;;
21711;SDS011;11017;53.552;9.910;2022-09-12T06:08:21;5.13;;;1.30;;
21711;SDS011;11017;53.552;9.910;2022-09-12T06:10:48;1.58;;;0.85;;
21711;SDS011;11017;53.552;9.910;2022-09-12T06:13:15;2.13;;;1.65;;
21711;SDS011;11017;53.552;9.910;2022-09-12T06:15:42;1.85;;;1.50;;
21711;SDS011;11017;53.552;9.910;2022-09-12T06:18:10;4.07;;;1.10;;
21711;SDS011;11017;53.552;9.910;2022-09-12T06:20:37;3.15;;;1.40;;
21711;SDS011;11017;53.552;9.910;2022-09-12T06:23:05;10.60;;;2.22;;
21711;SDS011;11017;53.552;9.910;2022-09-12T06:25:32;11.88;;;2.70;;
21711;SDS011;11017;53.552;9.910;2022-09-12T06:27:59;0.77;;;0.77;;
21711;SDS011;11017;53.552;9.910;2022-09-12T06:30:26;4.20;;;1.90;;
21711;SDS011;11017;53.552;9.910;2022-09-12T06:32:53;0.85;;;0.85;;
21711;SDS011;11017;53.552;9.910;2022-09-12T06:35:22;0.95;;;0.90;;
21711;SDS011;11017;53.552;9.910;2022-09-12T06:37:50;1.08;;;0.98;;
21711;SDS011;11017;53.552;9.910;2022-09-12T06:40:17;0.63;;;0.47;;
21711;SDS011;11017;53.552;9.910;2022-09-12T06:42:44;1.13;;;0.98;;
21711;SDS011;11017;53.552;9.910;2022-09-12T06:45:12;2.00;;;1.80;;
21711;SDS011;11017;53.552;9.910;2022-09-12T06:47:40;2.83;;;1.98;;
21711;SDS011;11017;53.552;9.910;2022-09-12T06:50:07;0.82;;;0.77;;
21711;SDS011;11017;53.552;9.910;2022-09-12T06:52:36;1.55;;;1.45;;
21711;SDS011;11017;53.552;9.910;2022-09-12T06:55:03;2.40;;;2.03;;
21711;SDS011;11017;53.552;9.910;2022-09-12T06:57:31;1.13;;;1.02;;
21711;SDS011;11017;53.552;9.910;2022-09-12T07:00:01;1.35;;;1.25;;
21711;SDS011;11017;53.552;9.910;2022-09-12T07:02:28;1.50;;;1.10;;
21711;SDS011;11017;53.552;9.910;2022-09-12T07:04:55;0.77;;;0.63;;
21711;SDS011;11017;53.552;9.910;2022-09-12T07:07:22;2.20;;;0.95;;
21711;SDS011;11017;53.552;9.910;2022-09-12T07:09:51;2.40;;;1.15;;
21711;SDS011;11017;53.552;9.910;2022-09-12T07:12:18;1.20;;;0.73;;
21711;SDS011;11017;53.552;9.910;2022-09-12T07:14:45;0.90;;;0.88;;
21711;SDS011;11017;53.552;9.910;2022-09-12T07:17:12;1.42;;;1.02;;
21711;SDS011;11017;53.552;9.910;2022-09-12T07:19:39;1.50;;;0.90;;
21711;SDS011;11017;53.552;9.910;2022-09-12T07:22:06;3.20;;;1.45;;
21711;SDS011;11017;53.552;9.910;2022-09-12T07:24:33;12.55;;;0.88;;
21711;SDS011;11017;53.552;9.910;2022-09-12T07:27:02;1.20;;;0.98;;
21711;SDS011;11017;53.552;9.910;2022-09-12T07:29:29;1.92;;;1.02;;
21711;SDS011;11017;53.552;9.910;2022-09-12T07:31:56;2.63;;;1.23;;
21711;SDS011;11017;53.552;9.910;2022-09-12T07:34:25;6.13;;;2.00;;
21711;SDS011;11017;53.552;9.910;2022-09-12T07:36:52;1.15;;;1.05;;
21711;SDS011;11017;53.552;9.910;2022-09-12T07:39:19;0.63;;;0.63;;
21711;SDS011;11017;53.552;9.910;2022-09-12T07:41:46;0.95;;;0.88;;
21711;SDS011;11017;53.552;9.910;2022-09-12T07:44:15;0.35;;;0.35;;
21711;SDS011;11017;53.552;9.910;2022-09-12T07:46:42;0.82;;;0.40;;
21711;SDS011;11017;53.552;9.910;2022-09-12T07:49:10;3.88;;;1.63;;
21711;SDS011;11017;53.552;9.910;2022-09-12T07:51:38;0.60;;;0.45;;
21711;SDS011;11017;53.552;9.910;2022-09-12T07:54:06;1.27;;;1.00;;
21711;SDS011;11017;53.552;9.910;2022-09-12T07:56:34;0.80;;;0.80;;
21711;SDS011;11017;53.552;9.910;2022-09-12T07:59:01;0.80;;;0.80;;
21711;SDS011;11017;53.552;9.910;2022-09-12T08:01:30;0.68;;;0.65;;
21711;SDS011;11017;53.552;9.910;2022-09-12T08:03:58;2.15;;;0.95;;
21711;SDS011;11017;53.552;9.910;2022-09-12T08:06:26;0.65;;;0.45;;
21711;SDS011;11017;53.552;9.910;2022-09-12T08:08:55;2.45;;;1.27;;
21711;SDS011;11017;53.552;9.910;2022-09-12T08:11:23;1.27;;;1.05;;
21711;SDS011;11017;53.552;9.910;2022-09-12T08:13:52;0.68;;;0.68;;
21711;SDS011;11017;53.552;9.910;2022-09-12T08:16:21;0.98;;;0.88;;
21711;SDS011;11017;53.552;9.910;2022-09-12T08:18:50;1.58;;;0.85;;
21711;SDS011;11017;53.552;9.910;2022-09-12T08:21:17;0.22;;;0.22;;
21711;SDS011;11017;53.552;9.910;2022-09-12T08:23:44;1.90;;;1.55;;
21711;SDS011;11017;53.552;9.910;2022-09-12T08:26:12;0.40;;;0.40;;
21711;SDS011;11017;53.552;9.910;2022-09-12T08:28:39;0.35;;;0.35;;
21711;SDS011;11017;53.552;9.910;2022-09-12T08:31:07;0.35;;;0.35;;
21711;SDS011;11017;53.552;9.910;2022-09-12T08:33:35;1.67;;;0.55;;
21711;SDS011;11017;53.552;9.910;2022-09-12T08:36:07;1.52;;;0.43;;
21711;SDS011;11017;53.552;9.910;2022-09-12T08:38:36;6.07;;;0.77;;
21711;SDS011;11017;53.552;9.910;2022-09-12T08:41:04;0.80;;;0.50;;
21711;SDS011;11017;53.552;9.910;2022-09-12T08:43:38;1.63;;;0.57;;
21711;SDS011;11017;53.552;9.910;2022-09-12T08:46:10;0.30;;;0.30;;
21711;SDS011;11017;53.552;9.910;2022-09-12T08:48:40;0.30;;;0.30;;
21711;SDS011;11017;53.552;9.910;2022-09-12T08:51:10;0.30;;;0.30;;
21711;SDS011;11017;53.552;9.910;2022-09-12T08:53:40;0.20;;;0.20;;
21711;SDS011;11017;53.552;9.910;2022-09-12T08:56:08;1.55;;;0.93;;
21711;SDS011;11017;53.552;9.910;2022-09-12T08:58:38;0.40;;;0.22;;
21711;SDS011;11017;53.552;9.910;2022-09-12T09:01:06;0.65;;;0.60;;
21711;SDS011;11017;53.552;9.910;2022-09-12T09:06:26;0.52;;;0.35;;
21711;SDS011;11017;53.552;9.910;2022-09-12T09:08:59;0.52;;;0.47;;
21711;SDS011;11017;53.552;9.910;2022-09-12T09:11:36;0.20;;;0.20;;
21711;SDS011;11017;53.552;9.910;2022-09-12T09:14:16;0.50;;;0.50;;
21711;SDS011;11017;53.552;9.910;2022-09-12T09:17:07;0.22;;;0.13;;
21711;SDS011;11017;53.552;9.910;2022-09-12T09:19:35;0.30;;;0.30;;
21711;SDS011;11017;53.552;9.910;2022-09-12T09:22:05;1.00;;;0.63;;
21711;SDS011;11017;53.552;9.910;2022-09-12T09:24:36;0.17;;;0.17;;
21711;SDS011;11017;53.552;9.910;2022-09-12T09:27:04;0.30;;;0.30;;
21711;SDS011;11017;53.552;9.910;2022-09-12T09:29:33;0.60;;;0.47;;
21711;SDS011;11017;53.552;9.910;2022-09-12T09:32:03;0.50;;;0.10;;
21711;SDS011;11017;53.552;9.910;2022-09-12T09:34:37;0.20;;;0.17;;
21711;SDS011;11017;53.552;9.910;2022-09-12T09:37:06;0.10;;;0.10;;
21711;SDS011;11017;53.552;9.910;2022-09-12T09:39:40;0.70;;;0.70;;
21711;SDS011;11017;53.552;9.910;2022-09-12T09:42:15;0.32;;;0.22;;
21711;SDS011;11017;53.552;9.910;2022-09-12T09:44:44;1.50;;;0.60;;
21711;SDS011;11017;53.552;9.910;2022-09-12T09:47:13;0.20;;;0.20;;
21711;SDS011;11017;53.552;9.910;2022-09-12T09:49:40;1.38;;;0.47;;
21711;SDS011;11017;53.552;9.910;2022-09-12T09:52:10;0.57;;;0.40;;
21711;SDS011;11017;53.552;9.910;2022-09-12T09:54:40;1.45;;;0.30;;
21711;SDS011;11017;53.552;9.910;2022-09-12T09:59:50;0.05;;;0.00;;
21711;SDS011;11017;53.552;9.910;2022-09-12T10:02:19;0.55;;;0.30;;
21711;SDS011;11017;53.552;9.910;2022-09-12T10:04:51;1.75;;;1.25;;
21711;SDS011;11017;53.552;9.910;2022-09-12T10:07:21;0.25;;;0.25;;
21711;SDS011;11017;53.552;9.910;2022-09-12T10:10:02;0.45;;;0.45;;
21711;SDS011;11017;53.552;9.910;2022-09-12T10:12:30;0.08;;;0.08;;
21711;SDS011;11017;53.552;9.910;2022-09-12T10:14:58;0.38;;;0.30;;
21711;SDS011;11017;53.552;9.910;2022-09-12T10:17:26;0.10;;;0.10;;
21711;SDS011;11017;53.552;9.910;2022-09-12T10:19:54;0.20;;;0.10;;
21711;SDS011;11017;53.552;9.910;2022-09-12T10:22:23;0.45;;;0.40;;
21711;SDS011;11017;53.552;9.910;2022-09-12T10:24:52;1.08;;;0.40;;
21711;SDS011;11017;53.552;9.910;2022-09-12T10:27:20;0.35;;;0.30;;
21711;SDS011;11017;53.552;9.910;2022-09-12T10:29:49;0.70;;;0.13;;
21711;SDS011;11017;53.552;9.910;2022-09-12T10:32:20;0.03;;;0.03;;
21711;SDS011;11017;53.552;9.910;2022-09-12T10:34:50;0.10;;;0.10;;
21711;SDS011;11017;53.552;9.910;2022-09-12T10:37:22;0.20;;;0.10;;
21711;SDS011;11017;53.552;9.910;2022-09-12T10:39:52;0.30;;;0.30;;
21711;SDS011;11017;53.552;9.910;2022-09-12T10:45:15;0.80;;;0.15;;
21711;SDS011;11017;53.552;9.910;2022-09-12T10:47:43;0.05;;;0.05;;
21711;SDS011;11017;53.552;9.910;2022-09-12T10:50:20;0.22;;;0.20;;
21711;SDS011;11017;53.552;9.910;2022-09-12T10:52:47;0.10;;;0.10;;
21711;SDS011;11017;53.552;9.910;2022-09-12T10:55:16;0.40;;;0.40;;
21711;SDS011;11017;53.552;9.910;2022-09-12T10:57:50;0.00;;;0.00;;
21711;SDS011;11017;53.552;9.910;2022-09-12T11:00:21;0.10;;;0.10;;
21711;SDS011;11017;53.552;9.910;2022-09-12T11:05:37;0.10;;;0.10;;
21711;SDS011;11017;53.552;9.910;2022-09-12T11:08:13;1.40;;;0.35;;
21711;SDS011;11017;53.552;9.910;2022-09-12T11:10:49;0.10;;;0.10;;
21711;SDS011;11017;53.552;9.910;2022-09-12T11:13:24;3.60;;;0.93;;
21711;SDS011;11017;53.552;9.910;2022-09-12T11:15:57;0.10;;;0.10;;
21711;SDS011;11017;53.552;9.910;2022-09-12T11:18:31;0.10;;;0.10;;
21711;SDS011;11017;53.552;9.910;2022-09-12T11:21:06;0.50;;;0.43;;
21711;SDS011;11017;53.552;9.910;2022-09-12T11:26:25;0.10;;;0.10;;
21711;SDS011;11017;53.552;9.910;2022-09-12T11:29:00;0.28;;;0.20;;
21711;SDS011;11017;53.552;9.910;2022-09-12T11:31:36;0.20;;;0.20;;
21711;SDS011;11017;53.552;9.910;2022-09-12T11:34:07;0.32;;;0.25;;
21711;SDS011;11017;53.552;9.910;2022-09-12T11:36:36;0.40;;;0.15;;
21711;SDS011;11017;53.552;9.910;2022-09-12T11:39:08;1.48;;;0.73;;
21711;SDS011;11017;53.552;9.910;2022-09-12T11:41:40;0.17;;;0.17;;
21711;SDS011;11017;53.552;9.910;2022-09-12T11:44:12;0.30;;;0.30;;
21711;SDS011;11017;53.552;9.910;2022-09-12T11:46:41;0.00;;;0.00;;
21711;SDS011;11017;53.552;9.910;2022-09-12T11:49:12;0.00;;;0.00;;
21711;SDS011;11017;53.552;9.910;2022-09-12T11:51:43;0.22;;;0.20;;
21711;SDS011;11017;53.552;9.910;2022-09-12T11:54:20;0.10;;;0.10;;
21711;SDS011;11017;53.552;9.910;2022-09-12T11:56:49;0.30;;;0.30;;
21711;SDS011;11017;53.552;9.910;2022-09-12T11:59:24;0.17;;;0.17;;
21711;SDS011;11017;53.552;9.910;2022-09-12T12:01:53;0.20;;;0.20;;
21711;SDS011;11017;53.552;9.910;2022-09-12T12:04:26;0.20;;;0.20;;
21711;SDS011;11017;53.552;9.910;2022-09-12T12:06:56;0.38;;;0.32;;
21711;SDS011;11017;53.552;9.910;2022-09-12T12:09:27;0.30;;;0.30;;
21711;SDS011;11017;53.552;9.910;2022-09-12T12:11:56;2.60;;;0.45;;
21711;SDS011;11017;53.552;9.910;2022-09-12T12:14:24;0.00;;;0.00;;
21711;SDS011;11017;53.552;9.910;2022-09-12T12:16:52;0.10;;;0.10;;
21711;SDS011;11017;53.552;9.910;2022-09-12T12:19:29;0.20;;;0.20;;
21711;SDS011;11017;53.552;9.910;2022-09-12T12:22:03;0.20;;;0.20;;
21711;SDS011;11017;53.552;9.910;2022-09-12T12:24:31;0.10;;;0.10;;
21711;SDS011;11017;53.552;9.910;2022-09-12T12:27:00;0.20;;;0.20;;
21711;SDS011;11017;53.552;9.910;2022-09-12T12:29:35;0.32;;;0.20;;
21711;SDS011;11017;53.552;9.910;2022-09-12T12:32:18;0.08;;;0.08;;
21711;SDS011;11017;53.552;9.910;2022-09-12T12:34:46;1.35;;;0.20;;
21711;SDS011;11017;53.552;9.910;2022-09-12T12:40:01;1.20;;;0.45;;
21711;SDS011;11017;53.552;9.910;2022-09-12T12:45:46;0.30;;;0.20;;
21711;SDS011;11017;53.552;9.910;2022-09-12T12:48:14;0.10;;;0.10;;
21711;SDS011;11017;53.552;9.910;2022-09-12T12:50:42;0.10;;;0.10;;
21711;SDS011;11017;53.552;9.910;2022-09-12T12:53:15;0.15;;;0.10;;
21711;SDS011;11017;53.552;9.910;2022-09-12T12:55:45;0.30;;;0.30;;
21711;SDS011;11017;53.552;9.910;2022-09-12T12:58:21;0.10;;;0.10;;
21711;SDS011;11017;53.552;9.910;2022-09-12T13:01:02;0.10;;;0.10;;
21711;SDS011;11017;53.552;9.910;2022-09-12T13:03:31;0.25;;;0.25;;
21711;SDS011;11017;53.552;9.910;2022-09-12T13:05:59;0.00;;;0.00;;
21711;SDS011;11017;53.552;9.910;2022-09-12T13:08:28;0.10;;;0.10;;
21711;SDS011;11017;53.552;9.910;2022-09-12T13:10:57;0.10;;;0.10;;
21711;SDS011;11017;53.552;9.910;2022-09-12T13:13:26;0.10;;;0.10;;
21711;SDS011;11017;53.552;9.910;2022-09-12T13:15:54;0.10;;;0.10;;
21711;SDS011;11017;53.552;9.910;2022-09-12T13:18:26;0.13;;;0.10;;
21711;SDS011;11017;53.552;9.910;2022-09-12T13:20:55;0.00;;;0.00;;
21711;SDS011;11017;53.552;9.910;2022-09-12T13:23:26;0.65;;;0.50;;
21711;SDS011;11017;53.552;9.910;2022-09-12T13:25:54;0.10;;;0.10;;
21711;SDS011;11017;53.552;9.910;2022-09-12T13:28:21;1.45;;;0.55;;
21711;SDS011;11017;53.552;9.910;2022-09-12T13:30:53;0.20;;;0.20;;
21711;SDS011;11017;53.552;9.910;2022-09-12T13:33:23;0.20;;;0.20;;
21711;SDS011;11017;53.552;9.910;2022-09-12T13:38:39;0.30;;;0.20;;
21711;SDS011;11017;53.552;9.910;2022-09-12T13:41:15;0.35;;;0.20;;
21711;SDS011;11017;53.552;9.910;2022-09-12T13:43:44;0.10;;;0.10;;
21711;SDS011;11017;53.552;9.910;2022-09-12T13:46:12;0.28;;;0.28;;
21711;SDS011;11017;53.552;9.910;2022-09-12T13:48:41;0.20;;;0.20;;
21711;SDS011;11017;53.552;9.910;2022-09-12T13:51:12;0.20;;;0.20;;
21711;SDS011;11017;53.552;9.910;2022-09-12T13:53:46;0.00;;;0.00;;
21711;SDS011;11017;53.552;9.910;2022-09-12T13:56:14;0.15;;;0.15;;
21711;SDS011;11017;53.552;9.910;2022-09-12T13:58:49;0.35;;;0.25;;
21711;SDS011;11017;53.552;9.910;2022-09-12T14:01:18;0.10;;;0.10;;
21711;SDS011;11017;53.552;9.910;2022-09-12T14:03:49;0.20;;;0.17;;
21711;SDS011;11017;53.552;9.910;2022-09-12T14:06:35;0.20;;;0.20;;
21711;SDS011;11017;53.552;9.910;2022-09-12T14:09:16;1.10;;;0.45;;
21711;SDS011;11017;53.552;9.910;2022-09-12T14:11:47;0.35;;;0.30;;
21711;SDS011;11017;53.552;9.910;2022-09-12T14:14:17;0.10;;;0.10;;
21711;SDS011;11017;53.552;9.910;2022-09-12T14:16:46;1.27;;;0.30;;
21711;SDS011;11017;53.552;9.910;2022-09-12T14:19:14;0.28;;;0.22;;
21711;SDS011;11017;53.552;9.910;2022-09-12T14:21:42;0.30;;;0.20;;
21711;SDS011;11017;53.552;9.910;2022-09-12T14:24:09;0.55;;;0.45;;
21711;SDS011;11017;53.552;9.910;2022-09-12T14:26:40;0.35;;;0.10;;
21711;SDS011;11017;53.552;9.910;2022-09-12T14:29:08;0.65;;;0.30;;
21711;SDS011;11017;53.552;9.910;2022-09-12T14:31:38;2.92;;;0.30;;
21711;SDS011;11017;53.552;9.910;2022-09-12T14:34:08;0.17;;;0.17;;
21711;SDS011;11017;53.552;9.910;2022-09-12T14:36:38;0.25;;;0.20;;
21711;SDS011;11017;53.552;9.910;2022-09-12T14:39:06;1.17;;;0.17;;
21711;SDS011;11017;53.552;9.910;2022-09-12T14:41:42;0.32;;;0.30;;
21711;SDS011;11017;53.552;9.910;2022-09-12T14:44:14;0.95;;;0.20;;
21711;SDS011;11017;53.552;9.910;2022-09-12T14:46:43;0.40;;;0.25;;
21711;SDS011;11017;53.552;9.910;2022-09-12T14:49:12;0.20;;;0.20;;
21711;SDS011;11017;53.552;9.910;2022-09-12T14:51:44;0.30;;;0.17;;
21711;SDS011;11017;53.552;9.910;2022-09-12T14:57:29;1.27;;;0.63;;
21711;SDS011;11017;53.552;9.910;2022-09-12T15:00:04;0.10;;;0.10;;
21711;SDS011;11017;53.552;9.910;2022-09-12T15:02:32;0.52;;;0.38;;
21711;SDS011;11017;53.552;9.910;2022-09-12T15:05:16;0.28;;;0.28;;
21711;SDS011;11017;53.552;9.910;2022-09-12T15:07:43;0.22;;;0.22;;
21711;SDS011;11017;53.552;9.910;2022-09-12T15:10:15;0.10;;;0.10;;
21711;SDS011;11017;53.552;9.910;2022-09-12T15:12:48;0.30;;;0.30;;
21711;SDS011;11017;53.552;9.910;2022-09-12T15:15:16;0.10;;;0.10;;
21711;SDS011;11017;53.552;9.910;2022-09-12T15:17:44;0.73;;;0.50;;
21711;SDS011;11017;53.552;9.910;2022-09-12T15:20:11;0.47;;;0.47;;
21711;SDS011;11017;53.552;9.910;2022-09-12T15:22:39;0.20;;;0.20;;
21711;SDS011;11017;53.552;9.910;2022-09-12T15:25:08;0.50;;;0.45;;
21711;SDS011;11017;53.552;9.910;2022-09-12T15:27:36;0.03;;;0.03;;
21711;SDS011;11017;53.552;9.910;2022-09-12T15:30:06;0.90;;;0.47;;